Time;durP1;ratioP1;P1;durP2;ratioP2;P2;SDS_P1;SDS_P2;PMS_P1;PMS_P2;Temp;Humidity;BMP_temperature;BMP_pressure;BME280_temperature;BME280_humidity;BME280_pressure;Samples;Min_cycle;Max_cycle;Signal;HPM_P1;HPM_P2
2022/07/10 00:00:32;;;;;;;11.68;2.30;;;;;;;;;;5044543;28;20025;-68
2022/07/10 00:02:59;;;;;;;11.98;2.20;;;;;;;;;;5045490;28;20025;-69
2022/07/10 00:05:25;;;;;;;10.52;2.35;;;;;;;;;;5041618;28;20494;-69
2022/07/10 00:07:52;;;;;;;9.18;2.10;;;;;;;;;;5045738;28;20033;-69
2022/07/10 00:10:18;;;;;;;12.48;2.72;;;;;;;;;;5044579;28;20505;-69
2022/07/10 00:12:45;;;;;;;9.18;2.05;;;;;;;;;;5046762;28;20025;-69
2022/07/10 00:15:11;;;;;;;9.10;2.20;;;;;;;;;;5044065;28;20032;-68
2022/07/10 00:17:39;;;;;;;8.57;2.10;;;;;;;;;;5047670;28;20047;-69
2022/07/10 00:20:06;;;;;;;9.30;2.17;;;;;;;;;;5038122;28;20073;-68
2022/07/10 00:22:34;;;;;;;9.32;2.58;;;;;;;;;;5034231;28;20242;-70
2022/07/10 00:25:00;;;;;;;10.55;2.00;;;;;;;;;;5045248;28;20115;-70
2022/07/10 00:27:26;;;;;;;7.63;2.15;;;;;;;;;;5044144;28;20033;-70
2022/07/10 00:29:52;;;;;;;9.07;2.17;;;;;;;;;;5057870;28;20411;-69
2022/07/10 00:32:18;;;;;;;8.60;2.05;;;;;;;;;;5043812;28;20029;-69
2022/07/10 00:34:44;;;;;;;5.82;1.88;;;;;;;;;;5037752;28;20037;-69
2022/07/10 00:37:10;;;;;;;10.10;2.10;;;;;;;;;;5045164;28;20506;-70
2022/07/10 00:39:37;;;;;;;10.90;2.15;;;;;;;;;;5044823;28;20029;-70
2022/07/10 00:42:07;;;;;;;10.98;2.00;;;;;;;;;;5046959;28;20040;-70
2022/07/10 00:44:33;;;;;;;11.07;2.03;;;;;;;;;;5041846;28;20083;-69
2022/07/10 00:46:59;;;;;;;6.63;2.28;;;;;;;;;;5045708;28;20151;-70
2022/07/10 00:49:25;;;;;;;7.00;1.80;;;;;;;;;;5042421;28;20089;-69
2022/07/10 00:51:52;;;;;;;7.40;2.10;;;;;;;;;;5047744;28;20116;-69
2022/07/10 00:54:19;;;;;;;6.05;2.00;;;;;;;;;;5045857;28;20122;-69
2022/07/10 00:56:45;;;;;;;12.25;2.33;;;;;;;;;;5044451;28;20032;-70
2022/07/10 00:59:11;;;;;;;11.48;1.83;;;;;;;;;;5044263;28;20040;-70
2022/07/10 01:01:37;;;;;;;12.27;2.63;;;;;;;;;;5045821;28;20124;-69
2022/07/10 01:04:03;;;;;;;9.15;2.17;;;;;;;;;;5043785;28;20116;-69
2022/07/10 01:06:29;;;;;;;14.32;2.78;;;;;;;;;;5045544;28;20112;-68
2022/07/10 01:08:55;;;;;;;10.15;2.00;;;;;;;;;;5044432;28;20078;-69
2022/07/10 01:11:21;;;;;;;11.00;2.00;;;;;;;;;;5040426;28;20445;-69
2022/07/10 01:13:47;;;;;;;11.15;2.70;;;;;;;;;;5045961;28;20036;-69
2022/07/10 01:16:13;;;;;;;10.43;1.83;;;;;;;;;;5044549;28;20029;-69
2022/07/10 01:18:40;;;;;;;9.35;2.40;;;;;;;;;;5046351;28;20107;-69
2022/07/10 01:21:07;;;;;;;11.35;2.35;;;;;;;;;;5040808;28;20120;-69
2022/07/10 01:23:33;;;;;;;8.07;2.00;;;;;;;;;;5043911;28;20079;-70
2022/07/10 01:26:00;;;;;;;7.47;2.42;;;;;;;;;;5040951;28;20110;-69
2022/07/10 01:28:27;;;;;;;8.35;2.00;;;;;;;;;;5041834;28;20064;-69
2022/07/10 01:30:55;;;;;;;9.52;2.88;;;;;;;;;;5040577;28;20032;-69
2022/07/10 01:33:21;;;;;;;9.57;2.03;;;;;;;;;;5041222;28;20029;-70
2022/07/10 01:35:47;;;;;;;9.27;2.00;;;;;;;;;;5043598;28;20031;-70
2022/07/10 01:38:13;;;;;;;7.65;1.85;;;;;;;;;;5040934;28;20135;-70
2022/07/10 01:40:39;;;;;;;11.80;1.90;;;;;;;;;;5045094;28;20024;-69
2022/07/10 01:43:06;;;;;;;10.25;2.45;;;;;;;;;;5039548;28;20120;-69
2022/07/10 01:45:33;;;;;;;10.75;2.03;;;;;;;;;;5040601;28;20028;-69
2022/07/10 01:47:59;;;;;;;7.82;2.30;;;;;;;;;;5045990;28;20041;-69
2022/07/10 01:50:26;;;;;;;9.00;2.45;;;;;;;;;;5040665;28;20128;-70
2022/07/10 01:52:52;;;;;;;9.88;1.95;;;;;;;;;;5039252;28;20060;-69
2022/07/10 01:55:18;;;;;;;8.90;2.28;;;;;;;;;;5042068;28;20466;-70
2022/07/10 01:57:44;;;;;;;9.68;2.22;;;;;;;;;;5044138;28;20524;-69
2022/07/10 02:00:10;;;;;;;10.35;2.80;;;;;;;;;;5043046;28;20463;-69
2022/07/10 02:02:36;;;;;;;10.50;2.33;;;;;;;;;;5039026;28;20036;-69
2022/07/10 02:05:02;;;;;;;13.00;2.28;;;;;;;;;;5041949;28;20051;-68
2022/07/10 02:07:28;;;;;;;13.18;2.28;;;;;;;;;;5044629;28;20052;-69
2022/07/10 02:09:54;;;;;;;15.20;2.08;;;;;;;;;;5043220;28;20040;-69
2022/07/10 02:12:20;;;;;;;12.90;2.20;;;;;;;;;;5044989;28;20053;-68
2022/07/10 02:14:46;;;;;;;13.05;2.25;;;;;;;;;;5044630;28;20045;-69
2022/07/10 02:17:12;;;;;;;9.60;2.30;;;;;;;;;;5040307;28;20048;-69
2022/07/10 02:19:38;;;;;;;10.48;3.22;;;;;;;;;;5039958;28;20037;-68
2022/07/10 02:22:05;;;;;;;6.65;2.40;;;;;;;;;;5045561;28;20044;-69
2022/07/10 02:24:31;;;;;;;9.77;2.15;;;;;;;;;;5044701;28;20040;-69
2022/07/10 02:26:57;;;;;;;6.70;2.17;;;;;;;;;;5044997;28;20343;-68
2022/07/10 02:29:23;;;;;;;8.77;2.78;;;;;;;;;;5044745;28;20024;-69
2022/07/10 02:31:49;;;;;;;15.13;2.80;;;;;;;;;;5042993;28;20063;-70
2022/07/10 02:34:15;;;;;;;11.98;2.63;;;;;;;;;;5041021;28;20489;-70
2022/07/10 02:36:41;;;;;;;10.50;2.40;;;;;;;;;;5043760;28;20139;-69
2022/07/10 02:39:08;;;;;;;14.23;2.88;;;;;;;;;;5044330;28;20128;-69
2022/07/10 02:41:35;;;;;;;10.85;2.60;;;;;;;;;;5040472;28;20040;-69
2022/07/10 02:44:02;;;;;;;11.18;2.67;;;;;;;;;;5044410;28;20155;-70
2022/07/10 02:46:28;;;;;;;13.02;3.38;;;;;;;;;;5042152;28;20033;-69
2022/07/10 02:48:54;;;;;;;9.88;2.72;;;;;;;;;;5041696;28;20025;-69
2022/07/10 02:51:20;;;;;;;13.13;2.60;;;;;;;;;;5041351;28;20538;-69
2022/07/10 02:53:46;;;;;;;10.32;2.85;;;;;;;;;;5040391;28;20041;-70
2022/07/10 02:56:12;;;;;;;9.57;2.60;;;;;;;;;;5043609;28;20120;-69
2022/07/10 02:58:39;;;;;;;12.48;3.05;;;;;;;;;;5045035;28;20052;-69
2022/07/10 03:01:05;;;;;;;14.55;3.15;;;;;;;;;;5039950;28;20033;-70
2022/07/10 03:03:31;;;;;;;15.35;3.15;;;;;;;;;;5042952;28;20141;-70
2022/07/10 03:05:57;;;;;;;14.80;2.60;;;;;;;;;;5041961;28;20034;-69
2022/07/10 03:08:24;;;;;;;18.13;3.28;;;;;;;;;;5044746;28;20234;-69
2022/07/10 03:10:50;;;;;;;11.68;3.03;;;;;;;;;;5042789;28;20304;-69
2022/07/10 03:13:16;;;;;;;8.65;2.65;;;;;;;;;;5041227;28;20024;-68
2022/07/10 03:15:42;;;;;;;14.82;2.70;;;;;;;;;;5031824;28;20067;-69
2022/07/10 03:18:08;;;;;;;7.53;2.92;;;;;;;;;;5040580;28;20036;-68
2022/07/10 03:20:34;;;;;;;9.35;3.17;;;;;;;;;;5042865;28;20029;-69
2022/07/10 03:23:00;;;;;;;12.57;2.55;;;;;;;;;;5040922;28;20132;-69
2022/07/10 03:25:26;;;;;;;13.15;3.28;;;;;;;;;;5041742;28;20033;-70
2022/07/10 03:27:52;;;;;;;11.65;2.45;;;;;;;;;;5045148;28;20033;-69
2022/07/10 03:30:19;;;;;;;8.73;2.35;;;;;;;;;;5044098;28;20099;-69
2022/07/10 03:32:45;;;;;;;14.30;2.80;;;;;;;;;;5048492;28;20304;-70
2022/07/10 03:35:11;;;;;;;12.15;2.50;;;;;;;;;;5043571;28;20033;-69
2022/07/10 03:37:37;;;;;;;9.90;2.42;;;;;;;;;;5045286;28;20032;-70
2022/07/10 03:40:04;;;;;;;13.13;2.33;;;;;;;;;;5044018;28;20036;-69
2022/07/10 03:42:30;;;;;;;10.88;2.40;;;;;;;;;;5048245;28;20068;-69
2022/07/10 03:44:56;;;;;;;7.35;2.38;;;;;;;;;;5045199;28;20041;-69
2022/07/10 03:47:22;;;;;;;14.60;4.00;;;;;;;;;;5048860;28;20029;-69
2022/07/10 03:49:48;;;;;;;13.95;2.53;;;;;;;;;;5039698;28;20029;-69
2022/07/10 03:52:14;;;;;;;7.93;2.88;;;;;;;;;;5042035;28;20071;-69
2022/07/10 03:54:41;;;;;;;8.30;2.70;;;;;;;;;;5044858;28;20044;-69
2022/07/10 03:59:52;;;;;;;10.38;2.50;;;;;;;;;;5044086;28;20064;-69
2022/07/10 04:02:18;;;;;;;12.50;2.65;;;;;;;;;;5041695;28;20037;-69
2022/07/10 04:04:44;;;;;;;12.88;2.38;;;;;;;;;;5044149;28;20458;-69
2022/07/10 04:07:12;;;;;;;7.05;2.20;;;;;;;;;;5047248;28;20040;-69
2022/07/10 04:09:38;;;;;;;10.20;2.10;;;;;;;;;;5033459;28;20120;-69
2022/07/10 04:12:04;;;;;;;11.23;2.75;;;;;;;;;;5044404;28;20029;-69
2022/07/10 04:14:30;;;;;;;9.82;2.55;;;;;;;;;;5044669;28;20037;-69
2022/07/10 04:16:56;;;;;;;9.02;2.10;;;;;;;;;;5046885;28;20053;-70
2022/07/10 04:19:22;;;;;;;10.68;2.78;;;;;;;;;;5039862;28;20540;-69
2022/07/10 04:21:49;;;;;;;11.07;3.25;;;;;;;;;;5044054;28;20037;-70
2022/07/10 04:24:15;;;;;;;12.10;2.10;;;;;;;;;;5042891;28;20665;-69
2022/07/10 04:26:41;;;;;;;15.02;2.47;;;;;;;;;;5040872;28;20483;-69
2022/07/10 04:29:07;;;;;;;8.15;2.30;;;;;;;;;;5045712;28;20025;-69
2022/07/10 04:31:33;;;;;;;10.60;2.50;;;;;;;;;;5043646;28;20040;-70
2022/07/10 04:33:59;;;;;;;11.25;2.60;;;;;;;;;;5046661;28;20037;-70
2022/07/10 04:36:25;;;;;;;10.35;2.08;;;;;;;;;;5026724;28;20124;-69
2022/07/10 04:38:51;;;;;;;9.60;2.13;;;;;;;;;;5044374;28;20123;-68
2022/07/10 04:41:17;;;;;;;10.65;2.70;;;;;;;;;;5040679;28;20112;-68
2022/07/10 04:43:44;;;;;;;10.05;2.60;;;;;;;;;;5044396;28;20124;-69
2022/07/10 04:46:09;;;;;;;15.70;2.10;;;;;;;;;;5042912;28;20033;-68
2022/07/10 04:48:35;;;;;;;11.88;2.10;;;;;;;;;;5045830;28;20381;-69
2022/07/10 04:51:01;;;;;;;14.85;2.83;;;;;;;;;;5043163;28;20045;-69
2022/07/10 04:53:27;;;;;;;14.20;2.60;;;;;;;;;;5042842;28;20044;-68
2022/07/10 04:55:54;;;;;;;13.18;2.38;;;;;;;;;;5043898;28;20033;-70
2022/07/10 04:58:19;;;;;;;5.90;2.00;;;;;;;;;;5042776;28;20048;-69
2022/07/10 05:00:46;;;;;;;9.38;2.42;;;;;;;;;;5040965;28;20033;-69
2022/07/10 05:03:15;;;;;;;7.32;2.00;;;;;;;;;;5043919;28;20102;-68
2022/07/10 05:05:41;;;;;;;9.85;2.50;;;;;;;;;;5043381;28;20036;-69
2022/07/10 05:08:07;;;;;;;10.30;1.98;;;;;;;;;;5043502;28;20040;-68
2022/07/10 05:10:33;;;;;;;9.35;2.20;;;;;;;;;;5039270;28;20033;-69
2022/07/10 05:12:59;;;;;;;9.38;2.13;;;;;;;;;;5041828;28;20028;-69
2022/07/10 05:15:25;;;;;;;8.90;2.10;;;;;;;;;;5042992;28;20098;-69
2022/07/10 05:17:51;;;;;;;8.63;2.33;;;;;;;;;;5042060;28;20033;-70
2022/07/10 05:20:17;;;;;;;13.80;3.00;;;;;;;;;;5041314;28;20117;-69
2022/07/10 05:22:43;;;;;;;16.15;2.40;;;;;;;;;;5041110;28;20144;-68
2022/07/10 05:25:09;;;;;;;16.55;2.30;;;;;;;;;;5041291;28;20082;-69
2022/07/10 05:27:35;;;;;;;12.23;2.75;;;;;;;;;;5041764;28;20032;-68
2022/07/10 05:30:01;;;;;;;8.55;2.20;;;;;;;;;;5041909;28;20058;-69
2022/07/10 05:32:27;;;;;;;7.53;2.28;;;;;;;;;;5043757;28;20037;-68
2022/07/10 05:34:53;;;;;;;10.32;2.50;;;;;;;;;;5036190;28;20035;-69
2022/07/10 05:37:19;;;;;;;9.68;2.70;;;;;;;;;;5042202;28;20491;-69
2022/07/10 05:39:45;;;;;;;11.52;2.45;;;;;;;;;;5040322;28;20316;-70
2022/07/10 05:42:11;;;;;;;11.77;2.17;;;;;;;;;;5042926;28;20402;-70
2022/07/10 05:44:37;;;;;;;10.07;2.00;;;;;;;;;;5041724;28;20077;-69
2022/07/10 05:47:03;;;;;;;13.13;2.63;;;;;;;;;;5042740;28;20094;-69
2022/07/10 05:49:31;;;;;;;9.82;2.42;;;;;;;;;;5042255;28;20021;-69
2022/07/10 05:51:57;;;;;;;10.00;2.33;;;;;;;;;;5041644;28;20052;-69
2022/07/10 05:54:24;;;;;;;11.70;2.55;;;;;;;;;;5040609;28;20033;-68
2022/07/10 05:56:51;;;;;;;10.32;2.45;;;;;;;;;;5041611;28;20260;-69
2022/07/10 05:59:17;;;;;;;10.70;2.38;;;;;;;;;;5035634;28;20502;-69
2022/07/10 06:01:43;;;;;;;10.57;2.50;;;;;;;;;;5042015;28;20041;-69
2022/07/10 06:04:08;;;;;;;18.08;3.47;;;;;;;;;;5042901;28;20066;-69
2022/07/10 06:06:34;;;;;;;10.52;2.28;;;;;;;;;;5041230;28;20120;-70
2022/07/10 06:09:01;;;;;;;14.98;2.53;;;;;;;;;;5039000;28;20044;-69
2022/07/10 06:11:27;;;;;;;11.57;2.42;;;;;;;;;;5036377;28;20119;-69
2022/07/10 06:13:53;;;;;;;14.50;2.15;;;;;;;;;;5041381;28;20125;-70
2022/07/10 06:16:19;;;;;;;10.05;2.30;;;;;;;;;;5037998;28;20094;-68
2022/07/10 06:18:44;;;;;;;23.75;3.75;;;;;;;;;;5042054;28;20045;-70
2022/07/10 06:21:10;;;;;;;10.40;2.53;;;;;;;;;;5040353;28;20472;-70
2022/07/10 06:23:36;;;;;;;16.05;2.30;;;;;;;;;;5039893;28;20041;-69
2022/07/10 06:26:03;;;;;;;11.80;2.67;;;;;;;;;;5041139;28;20499;-70
2022/07/10 06:28:28;;;;;;;11.32;2.33;;;;;;;;;;5040313;28;20052;-69
2022/07/10 06:30:55;;;;;;;10.05;2.47;;;;;;;;;;5041667;28;20029;-70
2022/07/10 06:33:21;;;;;;;13.27;2.58;;;;;;;;;;5038562;28;20116;-69
2022/07/10 06:35:47;;;;;;;13.45;2.53;;;;;;;;;;5033458;28;20047;-71
2022/07/10 06:38:13;;;;;;;12.30;2.53;;;;;;;;;;5042651;28;20075;-69
2022/07/10 06:40:39;;;;;;;8.70;2.13;;;;;;;;;;5035926;28;20602;-70
2022/07/10 06:43:05;;;;;;;10.77;2.22;;;;;;;;;;5035750;28;20163;-72
2022/07/10 06:45:31;;;;;;;12.20;2.88;;;;;;;;;;5034751;28;20045;-72
2022/07/10 06:47:58;;;;;;;12.82;2.35;;;;;;;;;;5041546;28;20478;-72
2022/07/10 06:50:25;;;;;;;11.20;2.38;;;;;;;;;;5039552;28;20029;-72
2022/07/10 06:52:51;;;;;;;9.18;2.30;;;;;;;;;;5038372;28;20125;-73
2022/07/10 06:55:19;;;;;;;11.60;2.55;;;;;;;;;;5032302;28;20036;-72
2022/07/10 06:57:45;;;;;;;15.68;2.65;;;;;;;;;;5037892;28;20030;-72
2022/07/10 07:00:11;;;;;;;8.45;1.73;;;;;;;;;;5038131;28;20530;-73
2022/07/10 07:02:37;;;;;;;9.98;2.33;;;;;;;;;;5040342;28;20032;-71
2022/07/10 07:05:04;;;;;;;15.52;2.00;;;;;;;;;;5043440;28;20128;-72
2022/07/10 07:07:30;;;;;;;11.85;2.40;;;;;;;;;;5041782;28;20482;-72
2022/07/10 07:09:56;;;;;;;9.10;2.05;;;;;;;;;;5043345;28;20034;-71
2022/07/10 07:12:22;;;;;;;11.15;2.20;;;;;;;;;;5039407;28;20071;-72
2022/07/10 07:14:48;;;;;;;13.88;2.63;;;;;;;;;;5045220;28;20041;-72
2022/07/10 07:17:21;;;;;;;11.73;2.38;;;;;;;;;;5043346;28;20039;-72
2022/07/10 07:25:18;;;;;;;8.68;2.10;;;;;;;;;;5038165;28;20060;-72
2022/07/10 07:27:44;;;;;;;7.18;1.90;;;;;;;;;;5034548;28;20017;-72
2022/07/10 07:30:11;;;;;;;9.30;2.40;;;;;;;;;;5039083;28;20047;-71
2022/07/10 07:32:38;;;;;;;6.72;2.13;;;;;;;;;;5049167;28;20037;-72
2022/07/10 07:35:04;;;;;;;7.47;2.38;;;;;;;;;;5042566;28;20061;-72
2022/07/10 07:37:40;;;;;;;8.93;2.47;;;;;;;;;;5046662;28;20033;-72
2022/07/10 07:40:08;;;;;;;9.05;2.50;;;;;;;;;;5041793;28;20045;-71
2022/07/10 07:42:34;;;;;;;12.52;2.65;;;;;;;;;;5040003;28;20029;-72
2022/07/10 07:45:00;;;;;;;5.53;2.25;;;;;;;;;;5042983;28;20040;-72
2022/07/10 07:47:26;;;;;;;8.40;1.70;;;;;;;;;;5044525;28;20090;-71
2022/07/10 07:49:53;;;;;;;8.60;2.10;;;;;;;;;;5045188;28;20099;-72
2022/07/10 07:52:19;;;;;;;9.90;1.95;;;;;;;;;;5044879;28;20056;-72
2022/07/10 07:54:45;;;;;;;10.50;2.50;;;;;;;;;;5044050;28;20041;-71
2022/07/10 07:57:11;;;;;;;9.80;2.47;;;;;;;;;;5044017;28;20037;-72
2022/07/10 07:59:37;;;;;;;7.75;2.20;;;;;;;;;;5046231;28;20452;-72
2022/07/10 08:02:03;;;;;;;8.88;2.22;;;;;;;;;;5043948;28;20055;-72
2022/07/10 08:04:29;;;;;;;11.43;2.45;;;;;;;;;;5040528;28;20409;-72
2022/07/10 08:06:55;;;;;;;12.77;3.55;;;;;;;;;;5044558;28;20340;-72
2022/07/10 08:09:21;;;;;;;7.72;2.30;;;;;;;;;;5044057;28;20132;-72
2022/07/10 08:11:48;;;;;;;6.90;2.53;;;;;;;;;;5043791;28;20081;-72
2022/07/10 08:14:14;;;;;;;10.00;2.15;;;;;;;;;;5042369;28;20061;-72
2022/07/10 08:16:40;;;;;;;10.15;2.17;;;;;;;;;;5039161;28;20036;-72
2022/07/10 08:19:06;;;;;;;7.85;2.30;;;;;;;;;;5035992;28;20045;-73
2022/07/10 08:21:34;;;;;;;10.98;2.55;;;;;;;;;;5037068;28;20491;-72
2022/07/10 08:24:00;;;;;;;7.00;2.10;;;;;;;;;;5038008;28;20064;-72
2022/07/10 08:26:26;;;;;;;6.18;2.00;;;;;;;;;;5041000;28;20043;-72
2022/07/10 08:28:52;;;;;;;4.47;2.08;;;;;;;;;;5039899;28;20025;-71
2022/07/10 08:31:18;;;;;;;7.70;2.10;;;;;;;;;;5040833;28;20481;-72
2022/07/10 08:33:45;;;;;;;6.57;2.33;;;;;;;;;;5043272;28;20045;-71
2022/07/10 08:36:11;;;;;;;10.25;2.30;;;;;;;;;;5043500;28;20018;-73
2022/07/10 08:38:37;;;;;;;5.53;2.05;;;;;;;;;;5037252;28;20116;-73
2022/07/10 08:41:05;;;;;;;7.97;2.17;;;;;;;;;;5034929;28;20241;-72
2022/07/10 08:43:31;;;;;;;11.40;2.22;;;;;;;;;;5044312;28;20064;-75
2022/07/10 08:45:59;;;;;;;8.98;1.95;;;;;;;;;;5039003;28;20030;-73
2022/07/10 08:48:25;;;;;;;7.82;1.80;;;;;;;;;;5038474;28;20022;-73
2022/07/10 08:50:55;;;;;;;9.15;2.13;;;;;;;;;;5043320;28;20029;-71
2022/07/10 08:53:30;;;;;;;3.55;1.77;;;;;;;;;;5039590;28;20068;-70
2022/07/10 08:55:56;;;;;;;4.70;1.90;;;;;;;;;;5034750;28;20799;-71
2022/07/10 08:58:23;;;;;;;6.22;2.35;;;;;;;;;;5040620;28;20051;-73
2022/07/10 09:00:49;;;;;;;9.88;1.92;;;;;;;;;;5041444;28;20056;-72
2022/07/10 09:03:15;;;;;;;5.28;1.95;;;;;;;;;;5038540;28;20021;-71
2022/07/10 09:05:41;;;;;;;6.15;1.67;;;;;;;;;;5039313;28;20045;-74
2022/07/10 09:08:24;;;;;;;7.35;2.03;;;;;;;;;;5041952;28;20066;-71
2022/07/10 09:10:50;;;;;;;4.85;2.00;;;;;;;;;;5038285;28;20034;-72
2022/07/10 09:13:17;;;;;;;5.65;2.20;;;;;;;;;;5039080;28;20102;-73
2022/07/10 09:15:48;;;;;;;6.72;1.60;;;;;;;;;;5039156;28;20029;-74
2022/07/10 09:18:22;;;;;;;7.03;2.35;;;;;;;;;;5043469;28;20040;-73
2022/07/10 09:20:49;;;;;;;5.85;1.65;;;;;;;;;;5043765;28;20035;-73
2022/07/10 09:23:18;;;;;;;5.45;1.85;;;;;;;;;;5039356;28;20025;-72
2022/07/10 09:25:45;;;;;;;8.82;1.90;;;;;;;;;;5038575;28;20033;-74
2022/07/10 09:28:11;;;;;;;10.15;1.65;;;;;;;;;;5042464;28;20099;-73
2022/07/10 09:30:38;;;;;;;6.57;1.90;;;;;;;;;;5039184;28;20105;-73
2022/07/10 09:33:18;;;;;;;8.07;2.08;;;;;;;;;;5044454;28;20119;-73
2022/07/10 09:36:05;;;;;;;6.07;1.90;;;;;;;;;;5040142;28;20036;-73
2022/07/10 09:38:51;;;;;;;8.00;2.00;;;;;;;;;;5039341;28;20045;-72
2022/07/10 09:41:21;;;;;;;9.05;2.80;;;;;;;;;;5038950;28;20044;-73
2022/07/10 09:43:48;;;;;;;8.73;1.83;;;;;;;;;;5041024;28;20029;-73
2022/07/10 09:46:15;;;;;;;5.45;1.67;;;;;;;;;;5044349;28;20029;-71
2022/07/10 09:48:41;;;;;;;6.53;1.70;;;;;;;;;;5052276;28;20112;-72
2022/07/10 09:51:11;;;;;;;4.82;1.80;;;;;;;;;;5041745;28;20037;-73
2022/07/10 09:53:41;;;;;;;9.20;2.95;;;;;;;;;;5046845;28;20110;-73
2022/07/10 09:56:12;;;;;;;6.35;1.67;;;;;;;;;;5043934;28;20025;-73
2022/07/10 09:58:39;;;;;;;6.18;1.63;;;;;;;;;;5043047;28;20020;-74
2022/07/10 10:01:06;;;;;;;6.82;2.00;;;;;;;;;;5041978;28;20054;-73
2022/07/10 10:03:36;;;;;;;9.68;2.13;;;;;;;;;;5041983;28;20116;-74
2022/07/10 10:06:04;;;;;;;5.32;2.03;;;;;;;;;;5042217;28;20115;-73
2022/07/10 10:08:37;;;;;;;5.22;2.00;;;;;;;;;;5038744;28;20109;-73
2022/07/10 10:11:05;;;;;;;5.32;1.67;;;;;;;;;;5037299;28;20092;-73
2022/07/10 10:13:31;;;;;;;4.15;1.70;;;;;;;;;;5037581;28;20033;-73
2022/07/10 10:15:57;;;;;;;3.95;1.40;;;;;;;;;;5043927;28;20033;-74
2022/07/10 10:18:27;;;;;;;5.18;1.35;;;;;;;;;;5039251;28;20548;-74
2022/07/10 10:20:54;;;;;;;8.27;2.05;;;;;;;;;;5039664;28;20030;-74
2022/07/10 10:23:20;;;;;;;4.18;1.40;;;;;;;;;;5044664;28;20047;-74
2022/07/10 10:25:51;;;;;;;8.55;1.85;;;;;;;;;;5043832;28;20037;-74
2022/07/10 10:28:20;;;;;;;4.22;1.27;;;;;;;;;;5043314;28;20052;-74
2022/07/10 10:30:47;;;;;;;4.80;1.60;;;;;;;;;;5043368;28;20074;-74
2022/07/10 10:33:32;;;;;;;10.18;1.70;;;;;;;;;;5043323;28;20126;-74
2022/07/10 10:35:58;;;;;;;7.57;1.85;;;;;;;;;;5035935;28;20029;-75
2022/07/10 10:38:24;;;;;;;7.13;1.55;;;;;;;;;;5043718;28;20048;-73
2022/07/10 10:40:50;;;;;;;6.38;1.40;;;;;;;;;;5038270;28;20033;-74
2022/07/10 10:43:17;;;;;;;3.25;1.42;;;;;;;;;;5041175;28;20053;-74
2022/07/10 10:45:44;;;;;;;6.15;1.38;;;;;;;;;;5038964;28;20108;-73
2022/07/10 10:48:14;;;;;;;5.50;1.40;;;;;;;;;;5042985;28;20029;-75
2022/07/10 10:50:46;;;;;;;4.18;1.38;;;;;;;;;;5038781;28;20537;-73
2022/07/10 10:53:16;;;;;;;6.05;1.50;;;;;;;;;;5042083;28;20028;-74
2022/07/10 10:56:01;;;;;;;5.38;1.30;;;;;;;;;;5043890;28;20033;-73
2022/07/10 10:58:37;;;;;;;4.22;1.20;;;;;;;;;;5035998;28;20022;-74
2022/07/10 11:01:04;;;;;;;7.85;1.40;;;;;;;;;;5037563;28;20091;-74
2022/07/10 11:03:30;;;;;;;5.82;1.52;;;;;;;;;;5041437;28;20087;-68
2022/07/10 11:05:56;;;;;;;4.10;1.50;;;;;;;;;;5040018;28;20025;-68
2022/07/10 11:08:39;;;;;;;6.28;1.85;;;;;;;;;;5038434;28;20025;-68
2022/07/10 11:11:37;;;;;;;2.55;1.23;;;;;;;;;;5037995;28;20047;-69
2022/07/10 11:14:04;;;;;;;3.78;1.40;;;;;;;;;;4995288;28;20488;-68
2022/07/10 11:16:32;;;;;;;6.88;1.75;;;;;;;;;;5031751;28;20052;-68
2022/07/10 11:18:58;;;;;;;4.82;1.40;;;;;;;;;;5034897;28;20040;-67
2022/07/10 11:21:25;;;;;;;7.63;1.50;;;;;;;;;;5037377;28;20029;-67
2022/07/10 11:24:02;;;;;;;6.60;1.80;;;;;;;;;;5031351;28;20021;-68
2022/07/10 11:26:46;;;;;;;2.70;1.08;;;;;;;;;;5039071;28;20112;-68
2022/07/10 11:29:12;;;;;;;3.83;1.52;;;;;;;;;;5041133;28;20029;-69
2022/07/10 11:31:44;;;;;;;6.25;1.25;;;;;;;;;;5040158;28;20082;-68
2022/07/10 11:34:10;;;;;;;5.65;1.30;;;;;;;;;;5034451;28;20021;-67
2022/07/10 11:36:39;;;;;;;6.72;1.77;;;;;;;;;;5033493;28;20033;-68
2022/07/10 11:39:09;;;;;;;3.35;1.38;;;;;;;;;;5042622;28;20029;-67
2022/07/10 11:41:35;;;;;;;2.40;1.30;;;;;;;;;;5039179;28;20037;-68
2022/07/10 11:44:04;;;;;;;5.65;1.20;;;;;;;;;;5033433;28;20040;-68
2022/07/10 11:46:31;;;;;;;4.45;1.15;;;;;;;;;;5039239;28;20033;-68
2022/07/10 11:48:58;;;;;;;6.03;1.30;;;;;;;;;;5041572;28;20038;-69
2022/07/10 11:51:25;;;;;;;6.05;2.17;;;;;;;;;;5039759;28;20044;-68
2022/07/10 11:53:57;;;;;;;6.55;1.38;;;;;;;;;;5044374;28;20051;-68
2022/07/10 11:56:24;;;;;;;3.95;1.30;;;;;;;;;;5037202;28;20033;-68
2022/07/10 11:59:02;;;;;;;5.68;1.45;;;;;;;;;;5041938;28;20407;-67
2022/07/10 12:01:29;;;;;;;3.33;1.17;;;;;;;;;;5038741;28;20021;-67
2022/07/10 12:03:59;;;;;;;4.78;1.10;;;;;;;;;;5045374;28;20049;-67
2022/07/10 12:06:26;;;;;;;3.35;1.00;;;;;;;;;;5038588;28;20090;-67
2022/07/10 12:08:52;;;;;;;7.57;1.40;;;;;;;;;;5040632;28;20025;-67
2022/07/10 12:11:18;;;;;;;7.88;1.55;;;;;;;;;;5041929;28;20065;-68
2022/07/10 12:13:45;;;;;;;5.25;1.40;;;;;;;;;;5037951;28;20029;-69
2022/07/10 12:16:12;;;;;;;9.15;1.50;;;;;;;;;;5040734;28;20175;-67
2022/07/10 12:18:40;;;;;;;6.43;1.25;;;;;;;;;;5035836;28;20091;-67
2022/07/10 12:21:07;;;;;;;5.28;1.33;;;;;;;;;;5044843;28;20439;-67
2022/07/10 12:23:35;;;;;;;6.38;1.60;;;;;;;;;;5037517;28;20029;-67
2022/07/10 12:26:03;;;;;;;6.75;1.35;;;;;;;;;;5034629;28;20037;-67
2022/07/10 12:28:29;;;;;;;4.28;1.25;;;;;;;;;;5039002;28;20067;-68
2022/07/10 12:30:55;;;;;;;3.63;1.23;;;;;;;;;;5045249;28;20044;-68
2022/07/10 12:33:22;;;;;;;2.97;1.17;;;;;;;;;;5043468;28;20067;-67
2022/07/10 12:35:48;;;;;;;4.35;1.83;;;;;;;;;;5035905;28;20037;-67
2022/07/10 12:38:17;;;;;;;3.92;1.20;;;;;;;;;;5030186;28;20084;-67
2022/07/10 12:40:44;;;;;;;3.80;1.40;;;;;;;;;;5040878;28;20029;-67
2022/07/10 12:43:11;;;;;;;2.53;1.15;;;;;;;;;;5016316;28;20399;-68
2022/07/10 12:45:37;;;;;;;3.80;1.20;;;;;;;;;;5037591;28;20137;-67
2022/07/10 12:48:05;;;;;;;4.80;1.20;;;;;;;;;;5041672;28;20056;-70
2022/07/10 12:50:32;;;;;;;6.35;1.50;;;;;;;;;;5040713;28;20049;-68
2022/07/10 12:53:08;;;;;;;6.43;1.95;;;;;;;;;;5037175;28;20038;-68
2022/07/10 12:55:38;;;;;;;6.53;1.80;;;;;;;;;;5037178;28;20061;-68
2022/07/10 12:58:08;;;;;;;5.00;1.13;;;;;;;;;;5041948;28;20486;-71
2022/07/10 13:00:36;;;;;;;3.72;1.20;;;;;;;;;;5040290;28;20025;-70
2022/07/10 13:03:04;;;;;;;5.85;1.45;;;;;;;;;;5037315;28;20037;-71
2022/07/10 13:05:31;;;;;;;3.88;1.15;;;;;;;;;;5040057;28;20132;-70
2022/07/10 13:08:07;;;;;;;5.25;1.30;;;;;;;;;;5041326;28;20025;-70
2022/07/10 13:10:33;;;;;;;3.90;1.40;;;;;;;;;;5038556;28;20035;-70
2022/07/10 13:13:00;;;;;;;5.22;1.30;;;;;;;;;;5042513;28;20037;-70
2022/07/10 13:15:26;;;;;;;2.85;1.17;;;;;;;;;;5042664;28;20037;-70
2022/07/10 13:17:52;;;;;;;6.28;1.70;;;;;;;;;;5038800;28;20025;-70
2022/07/10 13:20:18;;;;;;;7.57;1.40;;;;;;;;;;5041553;28;20033;-70
2022/07/10 13:22:44;;;;;;;4.70;1.40;;;;;;;;;;5042801;28;20047;-70
2022/07/10 13:25:10;;;;;;;5.03;1.30;;;;;;;;;;5038177;28;20355;-71
2022/07/10 13:27:36;;;;;;;4.65;1.20;;;;;;;;;;5039289;28;20098;-70
2022/07/10 13:30:07;;;;;;;3.17;1.40;;;;;;;;;;5045482;28;20479;-69
2022/07/10 13:32:33;;;;;;;4.88;1.55;;;;;;;;;;5041101;28;20478;-69
2022/07/10 13:35:00;;;;;;;5.50;1.40;;;;;;;;;;5036692;28;20096;-70
2022/07/10 13:37:26;;;;;;;6.18;1.52;;;;;;;;;;5039549;28;20078;-71
2022/07/10 13:39:52;;;;;;;4.40;1.35;;;;;;;;;;5041606;28;20068;-71
2022/07/10 13:42:18;;;;;;;5.45;1.38;;;;;;;;;;5040326;28;20025;-70
2022/07/10 13:44:44;;;;;;;4.72;1.50;;;;;;;;;;5039208;28;20463;-71
2022/07/10 13:47:10;;;;;;;5.18;1.50;;;;;;;;;;5040588;28;20028;-69
2022/07/10 13:49:37;;;;;;;3.33;1.35;;;;;;;;;;5040258;28;20029;-70
2022/07/10 13:52:03;;;;;;;6.70;1.80;;;;;;;;;;5038990;28;20057;-70
2022/07/10 13:54:29;;;;;;;8.90;1.73;;;;;;;;;;5039855;28;20029;-70
2022/07/10 13:56:55;;;;;;;4.47;1.60;;;;;;;;;;5038605;28;20482;-70
2022/07/10 13:59:21;;;;;;;6.57;1.50;;;;;;;;;;5037649;28;20044;-69
2022/07/10 14:01:47;;;;;;;8.02;1.60;;;;;;;;;;5039990;28;20025;-70
2022/07/10 14:04:13;;;;;;;4.45;1.52;;;;;;;;;;5034190;28;20088;-70
2022/07/10 14:06:39;;;;;;;8.63;1.50;;;;;;;;;;5038724;28;20025;-70
2022/07/10 14:09:05;;;;;;;5.75;1.60;;;;;;;;;;5040484;28;20097;-69
2022/07/10 14:11:32;;;;;;;5.65;1.65;;;;;;;;;;5034836;28;20496;-70
2022/07/10 14:13:58;;;;;;;6.78;2.10;;;;;;;;;;5037812;28;20773;-71
2022/07/10 14:16:25;;;;;;;7.20;1.55;;;;;;;;;;5038181;28;20117;-70
2022/07/10 14:18:51;;;;;;;4.45;1.60;;;;;;;;;;5037769;28;20083;-71
2022/07/10 14:21:17;;;;;;;8.15;2.30;;;;;;;;;;5037505;28;20037;-70
2022/07/10 14:23:44;;;;;;;5.05;1.90;;;;;;;;;;5039412;28;20030;-70
2022/07/10 14:26:10;;;;;;;9.73;2.58;;;;;;;;;;5041121;28;20052;-70
2022/07/10 14:28:36;;;;;;;9.20;2.10;;;;;;;;;;5036493;28;20056;-70
2022/07/10 14:31:03;;;;;;;6.93;1.80;;;;;;;;;;5038144;28;20057;-70
2022/07/10 14:33:33;;;;;;;5.28;1.67;;;;;;;;;;5036230;28;20017;-70
2022/07/10 14:35:59;;;;;;;7.63;1.90;;;;;;;;;;5039766;28;20025;-70
2022/07/10 14:38:25;;;;;;;5.00;1.55;;;;;;;;;;5039270;28;20037;-70
2022/07/10 14:40:53;;;;;;;7.00;1.92;;;;;;;;;;5035889;28;20028;-70
2022/07/10 14:43:19;;;;;;;6.25;2.05;;;;;;;;;;5038564;28;20041;-70
2022/07/10 14:45:46;;;;;;;3.70;2.00;;;;;;;;;;5039249;28;20029;-69